SIN weather

Public forecast

Using degrees Celsius for public forecast. Weather courtesy of forecast.io.

Current aviation weather report (METAR) for Singapore Changi Airport

Retrieved 2020/08/15 01:30 UTC (13 minutes ago):

WSSS 150130Z 06003KT 010V070 8000 FEW018 SCT150 BKN300 28/24 Q1011 NOSIG

Aviation forecast (TAF) for Singapore Changi Airport

Retrieved 2020-08-15 00:09 UTC (2 hours ago):

TAF WSSS 142300Z 1500/1606 16006KT 9999 FEW015 SCT020 TEMPO 1503/1506 3000 TSRA FEW012CB BKN015